sensor_id;sensor_type;location;lat;lon;timestamp;pressure;altitude;pressure_sealevel;temperature;humidity
78675;BME280;67990;59.826;30.108;2023-04-01T00:02:13;100472.41;;;1.49;77.01
78675;BME280;67990;59.826;30.108;2023-04-01T00:04:40;100430.91;;;1.20;76.50
78675;BME280;67990;59.826;30.108;2023-04-01T00:07:09;100472.31;;;1.20;76.83
78675;BME280;67990;59.826;30.108;2023-04-01T00:09:38;100480.56;;;1.26;77.37
78675;BME280;67990;59.826;30.108;2023-04-01T00:12:06;100472.38;;;1.34;77.09
78675;BME280;67990;59.826;30.108;2023-04-01T00:14:33;100481.56;;;1.39;77.31
78675;BME280;67990;59.826;30.108;2023-04-01T00:17:02;100481.50;;;1.56;76.47
78675;BME280;67990;59.826;30.108;2023-04-01T00:19:29;100463.69;;;1.19;77.41
78675;BME280;67990;59.826;30.108;2023-04-01T00:21:58;100486.53;;;1.28;77.46
78675;BME280;67990;59.826;30.108;2023-04-01T00:24:25;100480.41;;;1.29;77.44
78675;BME280;67990;59.826;30.108;2023-04-01T00:26:54;100470.56;;;1.20;77.25
78675;BME280;67990;59.826;30.108;2023-04-01T00:29:21;100470.22;;;1.26;77.02
78675;BME280;67990;59.826;30.108;2023-04-01T00:31:49;100475.75;;;1.20;76.92
78675;BME280;67990;59.826;30.108;2023-04-01T00:34:17;100480.56;;;1.42;76.70
78675;BME280;67990;59.826;30.108;2023-04-01T00:36:44;100482.94;;;1.46;76.53
78675;BME280;67990;59.826;30.108;2023-04-01T00:39:11;100479.19;;;1.52;76.69
78675;BME280;67990;59.826;30.108;2023-04-01T00:41:38;100477.25;;;1.55;75.90
78675;BME280;67990;59.826;30.108;2023-04-01T00:44:17;100445.69;;;1.33;76.67
78675;BME280;67990;59.826;30.108;2023-04-01T00:46:45;100474.16;;;1.49;76.26
78675;BME280;67990;59.826;30.108;2023-04-01T00:49:13;100415.22;;;1.07;76.11
78675;BME280;67990;59.826;30.108;2023-04-01T00:51:41;100478.75;;;1.44;76.79
78675;BME280;67990;59.826;30.108;2023-04-01T00:54:09;100474.91;;;1.35;76.84
78675;BME280;67990;59.826;30.108;2023-04-01T00:56:40;100470.38;;;1.23;77.34
78675;BME280;67990;59.826;30.108;2023-04-01T00:59:15;100463.03;;;1.31;77.39
78675;BME280;67990;59.826;30.108;2023-04-01T01:01:43;100470.81;;;1.31;77.57
78675;BME280;67990;59.826;30.108;2023-04-01T01:04:22;100480.41;;;1.29;77.64
78675;BME280;67990;59.826;30.108;2023-04-01T01:06:57;100461.81;;;1.23;77.24
78675;BME280;67990;59.826;30.108;2023-04-01T01:09:38;100472.81;;;1.26;77.80
78675;BME280;67990;59.826;30.108;2023-04-01T01:12:13;100465.63;;;1.31;77.87
78675;BME280;67990;59.826;30.108;2023-04-01T01:14:51;100463.19;;;1.13;78.02
78675;BME280;67990;59.826;30.108;2023-04-01T01:17:26;100470.38;;;1.23;77.80
78675;BME280;67990;59.826;30.108;2023-04-01T01:20:33;100470.88;;;0.99;78.40
78675;BME280;67990;59.826;30.108;2023-04-01T01:26:34;100415.03;;;0.79;77.79
78675;BME280;67990;59.826;30.108;2023-04-01T01:29:16;100463.41;;;0.93;77.82
78675;BME280;67990;59.826;30.108;2023-04-01T01:31:50;100474.53;;;0.62;79.25
78675;BME280;67990;59.826;30.108;2023-04-01T01:34:27;100471.44;;;0.88;78.86
78675;BME280;67990;59.826;30.108;2023-04-01T01:36:59;100474.28;;;0.67;78.70
78675;BME280;67990;59.826;30.108;2023-04-01T01:39:30;100469.41;;;0.78;78.75
78675;BME280;67990;59.826;30.108;2023-04-01T01:42:02;100478.28;;;1.05;78.37
78675;BME280;67990;59.826;30.108;2023-04-01T01:44:32;100464.34;;;1.07;78.16
78675;BME280;67990;59.826;30.108;2023-04-01T01:47:02;100473.00;;;0.91;77.84
78675;BME280;67990;59.826;30.108;2023-04-01T01:49:31;100480.53;;;0.95;77.91
78675;BME280;67990;59.826;30.108;2023-04-01T01:52:00;100473.31;;;1.17;76.89
78675;BME280;67990;59.826;30.108;2023-04-01T01:54:29;100474.75;;;1.23;77.00
78675;BME280;67990;59.826;30.108;2023-04-01T01:57:03;100459.25;;;0.90;76.74
78675;BME280;67990;59.826;30.108;2023-04-01T01:59:33;100478.63;;;0.99;76.76
78675;BME280;67990;59.826;30.108;2023-04-01T02:02:03;100469.59;;;0.90;77.49
78675;BME280;67990;59.826;30.108;2023-04-01T02:04:34;100451.25;;;0.95;77.46
78675;BME280;67990;59.826;30.108;2023-04-01T02:07:07;100458.00;;;0.82;77.84
78675;BME280;67990;59.826;30.108;2023-04-01T02:09:37;100466.41;;;0.85;77.83
78675;BME280;67990;59.826;30.108;2023-04-01T02:12:06;100465.44;;;0.71;78.12
78675;BME280;67990;59.826;30.108;2023-04-01T02:14:42;100466.25;;;0.88;77.93
78675;BME280;67990;59.826;30.108;2023-04-01T02:17:11;100475.88;;;0.69;78.63
78675;BME280;67990;59.826;30.108;2023-04-01T02:19:41;100476.19;;;0.96;78.93
78675;BME280;67990;59.826;30.108;2023-04-01T02:22:14;100449.88;;;0.72;78.27
78675;BME280;67990;59.826;30.108;2023-04-01T02:24:43;100468.16;;;0.85;78.49
78675;BME280;67990;59.826;30.108;2023-04-01T02:27:12;100476.69;;;1.02;78.41
78675;BME280;67990;59.826;30.108;2023-04-01T02:29:39;100483.97;;;1.11;77.66
78675;BME280;67990;59.826;30.108;2023-04-01T02:32:08;100476.97;;;1.13;77.90
78675;BME280;67990;59.826;30.108;2023-04-01T02:34:36;100472.63;;;1.14;77.42
78675;BME280;67990;59.826;30.108;2023-04-01T02:37:04;100465.09;;;0.94;76.97
78675;BME280;67990;59.826;30.108;2023-04-01T02:39:32;100471.28;;;1.07;77.52
78675;BME280;67990;59.826;30.108;2023-04-01T02:42:00;100480.72;;;1.08;77.49
78675;BME280;67990;59.826;30.108;2023-04-01T02:44:28;100474.75;;;0.90;77.13
78675;BME280;67990;59.826;30.108;2023-04-01T02:46:56;100481.56;;;1.08;77.80
78675;BME280;67990;59.826;30.108;2023-04-01T02:49:23;100477.47;;;1.04;77.61
78675;BME280;67990;59.826;30.108;2023-04-01T02:51:50;100475.63;;;1.06;77.24
78675;BME280;67990;59.826;30.108;2023-04-01T02:54:18;100479.91;;;0.90;77.87
78675;BME280;67990;59.826;30.108;2023-04-01T02:56:47;100491.84;;;0.93;77.61
78675;BME280;67990;59.826;30.108;2023-04-01T02:59:14;100469.00;;;0.85;78.22
78675;BME280;67990;59.826;30.108;2023-04-01T03:01:41;100440.19;;;0.76;78.19
78675;BME280;67990;59.826;30.108;2023-04-01T03:04:08;100477.97;;;0.95;78.24
78675;BME280;67990;59.826;30.108;2023-04-01T03:06:35;100477.13;;;0.95;77.42
78675;BME280;67990;59.826;30.108;2023-04-01T03:09:03;100481.06;;;1.02;78.02
78675;BME280;67990;59.826;30.108;2023-04-01T03:11:30;100486.56;;;1.11;77.75
78675;BME280;67990;59.826;30.108;2023-04-01T03:13:59;100471.81;;;1.13;77.17
78675;BME280;67990;59.826;30.108;2023-04-01T03:16:26;100478.13;;;1.08;77.37
78675;BME280;67990;59.826;30.108;2023-04-01T03:18:53;100482.66;;;1.20;76.76
78675;BME280;67990;59.826;30.108;2023-04-01T03:21:23;100482.22;;;1.12;77.50
78675;BME280;67990;59.826;30.108;2023-04-01T03:23:51;100487.69;;;1.23;77.09
78675;BME280;67990;59.826;30.108;2023-04-01T03:26:18;100478.69;;;0.97;77.71
78675;BME280;67990;59.826;30.108;2023-04-01T03:28:47;100473.69;;;0.94;78.13
78675;BME280;67990;59.826;30.108;2023-04-01T03:31:15;100487.59;;;0.92;78.27
78675;BME280;67990;59.826;30.108;2023-04-01T03:33:48;100476.13;;;0.97;78.23
78675;BME280;67990;59.826;30.108;2023-04-01T03:36:16;100499.06;;;1.03;78.25
78675;BME280;67990;59.826;30.108;2023-04-01T03:38:44;100490.31;;;0.73;78.62
78675;BME280;67990;59.826;30.108;2023-04-01T03:41:16;100478.38;;;0.71;79.35
78675;BME280;67990;59.826;30.108;2023-04-01T03:43:44;100503.38;;;0.70;79.79
78675;BME280;67990;59.826;30.108;2023-04-01T03:46:18;100483.25;;;0.77;79.56
78675;BME280;67990;59.826;30.108;2023-04-01T03:48:45;100491.31;;;0.71;79.47
78675;BME280;67990;59.826;30.108;2023-04-01T03:51:12;100432.28;;;0.46;79.58
78675;BME280;67990;59.826;30.108;2023-04-01T03:53:40;100479.19;;;0.88;79.27
78675;BME280;67990;59.826;30.108;2023-04-01T03:56:08;100510.66;;;0.96;79.32
78675;BME280;67990;59.826;30.108;2023-04-01T03:58:36;100503.34;;;1.04;79.24
78675;BME280;67990;59.826;30.108;2023-04-01T04:01:19;100497.66;;;0.98;78.87
78675;BME280;67990;59.826;30.108;2023-04-01T04:03:47;100502.59;;;0.85;78.99
78675;BME280;67990;59.826;30.108;2023-04-01T04:06:16;100498.66;;;0.95;79.05
78675;BME280;67990;59.826;30.108;2023-04-01T04:08:44;100437.00;;;0.55;79.55
78675;BME280;67990;59.826;30.108;2023-04-01T04:11:12;100495.78;;;0.84;79.40
78675;BME280;67990;59.826;30.108;2023-04-01T04:13:41;100502.13;;;0.94;79.16
78675;BME280;67990;59.826;30.108;2023-04-01T04:16:09;100506.91;;;1.02;79.19
78675;BME280;67990;59.826;30.108;2023-04-01T04:18:42;100503.97;;;0.92;78.62
78675;BME280;67990;59.826;30.108;2023-04-01T04:21:12;100509.97;;;0.93;79.21
78675;BME280;67990;59.826;30.108;2023-04-01T04:23:40;100503.03;;;0.93;78.64
78675;BME280;67990;59.826;30.108;2023-04-01T04:26:10;100511.03;;;0.89;78.36
78675;BME280;67990;59.826;30.108;2023-04-01T04:28:38;100512.97;;;0.68;79.21
78675;BME280;67990;59.826;30.108;2023-04-01T04:31:06;100498.50;;;0.81;79.19
78675;BME280;67990;59.826;30.108;2023-04-01T04:33:35;100512.16;;;1.00;78.77
78675;BME280;67990;59.826;30.108;2023-04-01T04:36:05;100508.03;;;1.13;79.34
78675;BME280;67990;59.826;30.108;2023-04-01T04:38:32;100517.56;;;1.28;78.28
78675;BME280;67990;59.826;30.108;2023-04-01T04:40:59;100499.19;;;1.17;78.04
78675;BME280;67990;59.826;30.108;2023-04-01T04:43:26;100506.66;;;1.06;78.33
78675;BME280;67990;59.826;30.108;2023-04-01T04:45:55;100496.47;;;1.03;78.62
78675;BME280;67990;59.826;30.108;2023-04-01T04:48:22;100523.94;;;1.06;77.91
78675;BME280;67990;59.826;30.108;2023-04-01T04:50:50;100513.69;;;1.04;78.29
78675;BME280;67990;59.826;30.108;2023-04-01T04:53:21;100523.28;;;1.18;78.49
78675;BME280;67990;59.826;30.108;2023-04-01T04:55:49;100516.94;;;1.23;78.05
78675;BME280;67990;59.826;30.108;2023-04-01T04:58:29;100476.38;;;1.08;78.70
78675;BME280;67990;59.826;30.108;2023-04-01T05:00:57;100515.81;;;1.44;78.39
78675;BME280;67990;59.826;30.108;2023-04-01T05:03:28;100499.84;;;1.36;77.47
78675;BME280;67990;59.826;30.108;2023-04-01T05:05:56;100521.66;;;1.63;77.66
78675;BME280;67990;59.826;30.108;2023-04-01T05:08:24;100534.34;;;1.37;76.30
78675;BME280;67990;59.826;30.108;2023-04-01T05:10:52;100529.31;;;1.18;77.00
78675;BME280;67990;59.826;30.108;2023-04-01T05:13:19;100508.25;;;1.09;76.86
78675;BME280;67990;59.826;30.108;2023-04-01T05:15:47;100525.19;;;1.14;78.29
78675;BME280;67990;59.826;30.108;2023-04-01T05:18:15;100526.94;;;1.14;78.00
78675;BME280;67990;59.826;30.108;2023-04-01T05:20:47;100530.31;;;1.16;77.46
78675;BME280;67990;59.826;30.108;2023-04-01T05:23:14;100529.09;;;1.38;77.66
78675;BME280;67990;59.826;30.108;2023-04-01T05:25:44;100522.16;;;1.54;76.80
78675;BME280;67990;59.826;30.108;2023-04-01T05:28:12;100509.69;;;1.14;77.10
78675;BME280;67990;59.826;30.108;2023-04-01T05:30:52;100524.41;;;1.45;76.61
78675;BME280;67990;59.826;30.108;2023-04-01T05:33:30;100531.44;;;1.74;76.07
78675;BME280;67990;59.826;30.108;2023-04-01T05:36:05;100530.00;;;1.84;75.77
78675;BME280;67990;59.826;30.108;2023-04-01T05:38:33;100532.44;;;1.87;74.70
78675;BME280;67990;59.826;30.108;2023-04-01T05:41:02;100529.94;;;1.54;75.38
78675;BME280;67990;59.826;30.108;2023-04-01T05:43:35;100536.28;;;1.49;75.55
78675;BME280;67990;59.826;30.108;2023-04-01T05:46:20;100539.59;;;1.51;76.30
78675;BME280;67990;59.826;30.108;2023-04-01T05:48:54;100530.59;;;1.27;77.13
78675;BME280;67990;59.826;30.108;2023-04-01T05:51:23;100536.97;;;1.83;76.93
78675;BME280;67990;59.826;30.108;2023-04-01T05:53:50;100535.50;;;1.47;75.92
78675;BME280;67990;59.826;30.108;2023-04-01T05:56:23;100545.97;;;1.45;76.25
78675;BME280;67990;59.826;30.108;2023-04-01T05:58:53;100539.13;;;1.60;75.96
78675;BME280;67990;59.826;30.108;2023-04-01T06:01:23;100531.34;;;1.75;75.84
78675;BME280;67990;59.826;30.108;2023-04-01T06:03:50;100538.28;;;1.75;74.77
78675;BME280;67990;59.826;30.108;2023-04-01T06:06:23;100542.09;;;1.37;75.16
78675;BME280;67990;59.826;30.108;2023-04-01T06:08:56;100532.75;;;1.50;76.61
78675;BME280;67990;59.826;30.108;2023-04-01T06:11:33;100535.19;;;1.68;75.85
78675;BME280;67990;59.826;30.108;2023-04-01T06:14:11;100543.13;;;1.65;75.41
78675;BME280;67990;59.826;30.108;2023-04-01T06:17:01;100551.81;;;1.64;75.41
78675;BME280;67990;59.826;30.108;2023-04-01T06:19:36;100545.13;;;1.60;75.75
78675;BME280;67990;59.826;30.108;2023-04-01T06:22:18;100538.66;;;1.36;75.93
78675;BME280;67990;59.826;30.108;2023-04-01T06:25:17;100546.91;;;1.75;76.05
78675;BME280;67990;59.826;30.108;2023-04-01T06:28:04;100550.06;;;2.11;75.31
78675;BME280;67990;59.826;30.108;2023-04-01T06:30:41;100548.53;;;1.92;74.70
78675;BME280;67990;59.826;30.108;2023-04-01T06:33:29;100553.13;;;2.18;75.22
78675;BME280;67990;59.826;30.108;2023-04-01T06:36:08;100487.88;;;2.11;73.69
78675;BME280;67990;59.826;30.108;2023-04-01T06:38:56;100554.31;;;2.12;73.42
78675;BME280;67990;59.826;30.108;2023-04-01T06:41:56;100555.13;;;2.13;74.12
78675;BME280;67990;59.826;30.108;2023-04-01T06:44:38;100557.47;;;2.17;74.06
78675;BME280;67990;59.826;30.108;2023-04-01T06:48:01;100548.44;;;2.09;74.64
78675;BME280;67990;59.826;30.108;2023-04-01T06:51:01;100551.16;;;2.37;74.21
78675;BME280;67990;59.826;30.108;2023-04-01T06:53:58;100563.25;;;2.81;72.64
78675;BME280;67990;59.826;30.108;2023-04-01T06:57:20;100560.06;;;2.76;71.62
78675;BME280;67990;59.826;30.108;2023-04-01T06:59:53;100550.31;;;2.66;71.69
78675;BME280;67990;59.826;30.108;2023-04-01T07:02:29;100568.88;;;2.74;72.23
78675;BME280;67990;59.826;30.108;2023-04-01T07:05:00;100562.56;;;2.64;72.66
78675;BME280;67990;59.826;30.108;2023-04-01T07:07:34;100552.00;;;2.67;71.88
78675;BME280;67990;59.826;30.108;2023-04-01T07:10:11;100568.56;;;2.64;72.00
78675;BME280;67990;59.826;30.108;2023-04-01T07:13:16;100567.28;;;2.71;72.22
78675;BME280;67990;59.826;30.108;2023-04-01T07:15:54;100557.31;;;2.50;72.72
78675;BME280;67990;59.826;30.108;2023-04-01T07:18:30;100569.38;;;2.94;72.78
78675;BME280;67990;59.826;30.108;2023-04-01T07:21:01;100569.94;;;2.85;71.83
78675;BME280;67990;59.826;30.108;2023-04-01T07:23:32;100577.09;;;3.10;71.99
78675;BME280;67990;59.826;30.108;2023-04-01T07:26:25;100590.38;;;3.47;70.63
78675;BME280;67990;59.826;30.108;2023-04-01T07:29:09;100543.06;;;3.00;70.65
78675;BME280;67990;59.826;30.108;2023-04-01T07:34:45;100579.88;;;3.21;71.68
78675;BME280;67990;59.826;30.108;2023-04-01T07:37:20;100583.84;;;3.26;70.96
78675;BME280;67990;59.826;30.108;2023-04-01T07:39:56;100592.38;;;3.42;70.73
78675;BME280;67990;59.826;30.108;2023-04-01T07:42:43;100592.81;;;2.63;71.81
78675;BME280;67990;59.826;30.108;2023-04-01T07:45:17;100596.28;;;2.78;72.87
78675;BME280;67990;59.826;30.108;2023-04-01T07:47:59;100592.75;;;3.08;71.81
78675;BME280;67990;59.826;30.108;2023-04-01T07:50:32;100597.00;;;2.95;71.33
78675;BME280;67990;59.826;30.108;2023-04-01T07:53:11;100611.66;;;2.67;72.71
78675;BME280;67990;59.826;30.108;2023-04-01T07:55:51;100609.72;;;2.70;72.19
78675;BME280;67990;59.826;30.108;2023-04-01T07:58:29;100613.00;;;2.88;72.66
78675;BME280;67990;59.826;30.108;2023-04-01T08:01:05;100609.16;;;3.37;71.37
78675;BME280;67990;59.826;30.108;2023-04-01T08:03:55;100605.94;;;3.33;71.01
78675;BME280;67990;59.826;30.108;2023-04-01T08:06:31;100612.13;;;3.73;69.84
78675;BME280;67990;59.826;30.108;2023-04-01T08:09:04;100606.75;;;3.48;69.29
78675;BME280;67990;59.826;30.108;2023-04-01T08:12:02;100622.94;;;3.09;70.08
78675;BME280;67990;59.826;30.108;2023-04-01T08:14:58;100617.41;;;3.29;69.80
78675;BME280;67990;59.826;30.108;2023-04-01T08:17:58;100614.59;;;2.90;70.84
78675;BME280;67990;59.826;30.108;2023-04-01T08:20:34;100608.91;;;3.27;70.34
78675;BME280;67990;59.826;30.108;2023-04-01T08:23:09;100616.44;;;3.46;70.16
78675;BME280;67990;59.826;30.108;2023-04-01T08:25:44;100609.25;;;3.63;69.48
78675;BME280;67990;59.826;30.108;2023-04-01T08:28:19;100609.38;;;3.62;69.06
78675;BME280;67990;59.826;30.108;2023-04-01T08:30:49;100595.19;;;3.53;68.79
78675;BME280;67990;59.826;30.108;2023-04-01T08:33:23;100589.44;;;3.48;69.16
78675;BME280;67990;59.826;30.108;2023-04-01T08:36:01;100588.22;;;3.26;67.83
78675;BME280;67990;59.826;30.108;2023-04-01T08:38:33;100555.03;;;3.17;68.73
78675;BME280;67990;59.826;30.108;2023-04-01T08:44:40;100613.34;;;3.81;67.21
78675;BME280;67990;59.826;30.108;2023-04-01T08:50:49;100620.88;;;3.58;67.97
78675;BME280;67990;59.826;30.108;2023-04-01T08:53:54;100624.13;;;3.47;69.08
78675;BME280;67990;59.826;30.108;2023-04-01T08:56:34;100634.81;;;4.11;67.79
78675;BME280;67990;59.826;30.108;2023-04-01T08:59:37;100637.25;;;4.00;67.33
78675;BME280;67990;59.826;30.108;2023-04-01T09:02:50;100646.78;;;4.14;67.06
78675;BME280;67990;59.826;30.108;2023-04-01T09:05:58;100647.22;;;4.20;66.75
78675;BME280;67990;59.826;30.108;2023-04-01T09:08:38;100645.88;;;4.01;67.99
78675;BME280;67990;59.826;30.108;2023-04-01T09:11:26;100651.09;;;4.01;68.23
78675;BME280;67990;59.826;30.108;2023-04-01T09:14:22;100649.13;;;4.18;67.97
78675;BME280;67990;59.826;30.108;2023-04-01T09:17:30;100648.97;;;4.60;66.35
78675;BME280;67990;59.826;30.108;2023-04-01T09:20:38;100656.94;;;4.45;65.35
78675;BME280;67990;59.826;30.108;2023-04-01T09:23:28;100655.56;;;3.85;66.43
78675;BME280;67990;59.826;30.108;2023-04-01T09:26:12;100645.63;;;3.63;67.48
78675;BME280;67990;59.826;30.108;2023-04-01T09:28:58;100647.84;;;3.55;67.69
78675;BME280;67990;59.826;30.108;2023-04-01T09:31:48;100652.03;;;3.72;68.23
78675;BME280;67990;59.826;30.108;2023-04-01T09:34:54;100663.25;;;3.86;67.32
78675;BME280;67990;59.826;30.108;2023-04-01T09:37:35;100658.81;;;3.74;67.55
78675;BME280;67990;59.826;30.108;2023-04-01T09:40:16;100669.59;;;3.68;68.54
78675;BME280;67990;59.826;30.108;2023-04-01T09:43:07;100667.44;;;3.61;67.93
78675;BME280;67990;59.826;30.108;2023-04-01T09:51:53;100672.16;;;3.54;68.39
78675;BME280;67990;59.826;30.108;2023-04-01T09:54:36;100669.94;;;3.62;69.46
78675;BME280;67990;59.826;30.108;2023-04-01T09:57:26;100665.91;;;4.13;67.95
78675;BME280;67990;59.826;30.108;2023-04-01T10:06:56;100671.81;;;4.69;67.03
78675;BME280;67990;59.826;30.108;2023-04-01T10:09:56;100676.66;;;5.39;65.24
78675;BME280;67990;59.826;30.108;2023-04-01T10:12:49;100682.66;;;5.27;64.30
78675;BME280;67990;59.826;30.108;2023-04-01T10:15:38;100685.34;;;4.48;66.04
78675;BME280;67990;59.826;30.108;2023-04-01T10:25:01;100691.84;;;4.81;66.69
78675;BME280;67990;59.826;30.108;2023-04-01T10:27:48;100690.19;;;4.66;66.51
78675;BME280;67990;59.826;30.108;2023-04-01T10:30:50;100693.78;;;5.04;66.68
78675;BME280;67990;59.826;30.108;2023-04-01T10:34:12;100684.25;;;5.42;65.09
78675;BME280;67990;59.826;30.108;2023-04-01T10:36:56;100692.16;;;5.28;64.86
78675;BME280;67990;59.826;30.108;2023-04-01T10:40:13;100702.13;;;5.09;64.03
78675;BME280;67990;59.826;30.108;2023-04-01T10:43:22;100702.81;;;4.99;65.32
78675;BME280;67990;59.826;30.108;2023-04-01T10:46:21;100701.28;;;4.56;66.89
78675;BME280;67990;59.826;30.108;2023-04-01T10:49:26;100703.25;;;4.52;67.16
78675;BME280;67990;59.826;30.108;2023-04-01T10:52:28;100705.59;;;4.57;66.25
78675;BME280;67990;59.826;30.108;2023-04-01T10:55:37;100698.09;;;4.38;66.98
78675;BME280;67990;59.826;30.108;2023-04-01T11:05:50;100710.28;;;4.64;65.72
78675;BME280;67990;59.826;30.108;2023-04-01T11:11:56;100723.94;;;4.94;64.89
78675;BME280;67990;59.826;30.108;2023-04-01T11:14:46;100719.41;;;5.10;64.12
78675;BME280;67990;59.826;30.108;2023-04-01T11:27:09;100730.66;;;4.58;65.74
78675;BME280;67990;59.826;30.108;2023-04-01T11:30:22;100730.25;;;4.64;65.35
78675;BME280;67990;59.826;30.108;2023-04-01T11:32:59;100738.59;;;4.42;65.13
78675;BME280;67990;59.826;30.108;2023-04-01T11:35:59;100740.94;;;4.33;66.19
78675;BME280;67990;59.826;30.108;2023-04-01T11:39:03;100736.81;;;4.43;66.31
78675;BME280;67990;59.826;30.108;2023-04-01T11:41:56;100741.16;;;4.56;65.57
78675;BME280;67990;59.826;30.108;2023-04-01T11:45:15;100748.69;;;4.87;64.96
78675;BME280;67990;59.826;30.108;2023-04-01T11:47:59;100730.25;;;4.78;64.72
78675;BME280;67990;59.826;30.108;2023-04-01T11:50:41;100749.28;;;4.78;65.31
78675;BME280;67990;59.826;30.108;2023-04-01T11:53:19;100748.25;;;4.81;64.94
78675;BME280;67990;59.826;30.108;2023-04-01T11:55:59;100744.41;;;4.86;64.64
78675;BME280;67990;59.826;30.108;2023-04-01T11:58:46;100751.78;;;4.80;64.65
78675;BME280;67990;59.826;30.108;2023-04-01T12:01:29;100752.28;;;4.58;64.87
78675;BME280;67990;59.826;30.108;2023-04-01T12:07:03;100749.84;;;4.29;65.91
78675;BME280;67990;59.826;30.108;2023-04-01T12:09:39;100757.00;;;3.97;66.93
78675;BME280;67990;59.826;30.108;2023-04-01T12:12:20;100761.63;;;3.92;67.40
78675;BME280;67990;59.826;30.108;2023-04-01T12:15:00;100759.78;;;3.94;67.76
78675;BME280;67990;59.826;30.108;2023-04-01T12:17:37;100752.06;;;3.93;67.34
78675;BME280;67990;59.826;30.108;2023-04-01T12:20:22;100761.28;;;3.84;67.93
78675;BME280;67990;59.826;30.108;2023-04-01T12:22:58;100762.94;;;3.99;67.40
78675;BME280;67990;59.826;30.108;2023-04-01T12:25:45;100768.31;;;3.96;66.82
78675;BME280;67990;59.826;30.108;2023-04-01T12:28:24;100768.38;;;3.81;67.50
78675;BME280;67990;59.826;30.108;2023-04-01T12:31:06;100767.19;;;3.72;66.81
78675;BME280;67990;59.826;30.108;2023-04-01T12:33:51;100769.16;;;3.83;67.50
78675;BME280;67990;59.826;30.108;2023-04-01T12:36:35;100773.03;;;3.76;67.90
78675;BME280;67990;59.826;30.108;2023-04-01T12:39:28;100777.78;;;4.11;66.69
78675;BME280;67990;59.826;30.108;2023-04-01T12:42:10;100776.41;;;4.20;65.81
78675;BME280;67990;59.826;30.108;2023-04-01T12:45:01;100772.22;;;3.89;67.23
78675;BME280;67990;59.826;30.108;2023-04-01T12:48:00;100778.91;;;4.35;65.01
78675;BME280;67990;59.826;30.108;2023-04-01T12:53:49;100786.06;;;4.32;65.87
78675;BME280;67990;59.826;30.108;2023-04-01T12:56:34;100789.41;;;4.20;nan
78675;BME280;67990;59.826;30.108;2023-04-01T12:59:24;100789.41;;;4.20;64.36
78675;BME280;67990;59.826;30.108;2023-04-01T13:02:11;100788.47;;;4.07;64.99
78675;BME280;67990;59.826;30.108;2023-04-01T13:05:06;100792.91;;;4.47;65.79
78675;BME280;67990;59.826;30.108;2023-04-01T13:07:49;100804.00;;;4.91;64.02
78675;BME280;67990;59.826;30.108;2023-04-01T13:10:31;100806.81;;;5.14;63.12
78675;BME280;67990;59.826;30.108;2023-04-01T13:13:23;100797.66;;;4.95;63.78
78675;BME280;67990;59.826;30.108;2023-04-01T13:15:57;100815.13;;;5.46;63.07
78675;BME280;67990;59.826;30.108;2023-04-01T13:18:33;100802.69;;;5.63;62.08
78675;BME280;67990;59.826;30.108;2023-04-01T13:21:13;100806.00;;;5.65;61.94
78675;BME280;67990;59.826;30.108;2023-04-01T13:23:52;100799.38;;;5.35;63.12
78675;BME280;67990;59.826;30.108;2023-04-01T13:26:27;100812.25;;;5.50;63.06
78675;BME280;67990;59.826;30.108;2023-04-01T13:29:02;100796.38;;;5.53;62.76
78675;BME280;67990;59.826;30.108;2023-04-01T13:31:50;100821.50;;;5.15;62.44
78675;BME280;67990;59.826;30.108;2023-04-01T13:34:35;100819.75;;;5.02;63.96
78675;BME280;67990;59.826;30.108;2023-04-01T13:37:20;100835.69;;;4.97;63.82
78675;BME280;67990;59.826;30.108;2023-04-01T13:40:00;100833.63;;;5.29;63.02
78675;BME280;67990;59.826;30.108;2023-04-01T13:42:33;100835.53;;;5.13;63.14
78675;BME280;67990;59.826;30.108;2023-04-01T13:45:03;100821.44;;;5.03;62.90
78675;BME280;67990;59.826;30.108;2023-04-01T13:47:59;100834.59;;;5.14;63.34
78675;BME280;67990;59.826;30.108;2023-04-01T13:50:40;100833.91;;;4.98;63.36
78675;BME280;67990;59.826;30.108;2023-04-01T13:53:30;100832.31;;;5.09;61.45
78675;BME280;67990;59.826;30.108;2023-04-01T13:56:22;100843.78;;;5.19;61.15
78675;BME280;67990;59.826;30.108;2023-04-01T13:59:07;100842.47;;;5.26;60.67
78675;BME280;67990;59.826;30.108;2023-04-01T14:01:41;100849.91;;;4.92;60.09
78675;BME280;67990;59.826;30.108;2023-04-01T14:04:44;100850.34;;;5.12;60.22
78675;BME280;67990;59.826;30.108;2023-04-01T14:07:25;100854.22;;;5.19;59.84
78675;BME280;67990;59.826;30.108;2023-04-01T14:10:18;100857.19;;;4.73;59.78
78675;BME280;67990;59.826;30.108;2023-04-01T14:12:53;100855.88;;;4.80;58.26
78675;BME280;67990;59.826;30.108;2023-04-01T14:15:42;100855.81;;;4.39;59.16
78675;BME280;67990;59.826;30.108;2023-04-01T14:18:25;100856.94;;;4.63;59.28
78675;BME280;67990;59.826;30.108;2023-04-01T14:21:10;100863.78;;;4.22;59.12
78675;BME280;67990;59.826;30.108;2023-04-01T14:23:52;100868.03;;;4.09;59.39
78675;BME280;67990;59.826;30.108;2023-04-01T14:26:32;100856.34;;;4.16;60.80
78675;BME280;67990;59.826;30.108;2023-04-01T14:29:17;100871.75;;;4.33;58.26
78675;BME280;67990;59.826;30.108;2023-04-01T14:32:00;100868.06;;;4.23;59.36
78675;BME280;67990;59.826;30.108;2023-04-01T14:34:46;100871.31;;;3.38;58.31
78675;BME280;67990;59.826;30.108;2023-04-01T14:37:30;100871.81;;;3.60;59.22
78675;BME280;67990;59.826;30.108;2023-04-01T14:40:42;100872.81;;;3.58;57.47
78675;BME280;67990;59.826;30.108;2023-04-01T14:43:42;100885.41;;;3.79;57.07
78675;BME280;67990;59.826;30.108;2023-04-01T14:46:50;100887.38;;;3.60;56.80
78675;BME280;67990;59.826;30.108;2023-04-01T14:49:30;100891.78;;;3.74;55.68
78675;BME280;67990;59.826;30.108;2023-04-01T14:52:04;100891.69;;;3.75;55.64